sensor_id;sensor_type;location;lat;lon;timestamp;temperature;humidity
11764;DHT22;5939;56.522;14.950;2022-09-09T00:01:58;14.80;99.40
11764;DHT22;5939;56.522;14.950;2022-09-09T00:04:31;14.80;99.60
11764;DHT22;5939;56.522;14.950;2022-09-09T00:09:57;14.80;99.70
11764;DHT22;5939;56.522;14.950;2022-09-09T00:15:12;14.80;99.70
11764;DHT22;5939;56.522;14.950;2022-09-09T00:17:58;14.80;99.70
11764;DHT22;5939;56.522;14.950;2022-09-09T00:20:44;14.80;99.80
11764;DHT22;5939;56.522;14.950;2022-09-09T00:23:25;14.80;99.80
11764;DHT22;5939;56.522;14.950;2022-09-09T00:26:30;14.80;99.90
11764;DHT22;5939;56.522;14.950;2022-09-09T00:31:44;14.80;99.90
11764;DHT22;5939;56.522;14.950;2022-09-09T00:36:43;14.80;99.90
11764;DHT22;5939;56.522;14.950;2022-09-09T00:39:26;14.80;99.90
11764;DHT22;5939;56.522;14.950;2022-09-09T00:44:35;14.80;99.90
11764;DHT22;5939;56.522;14.950;2022-09-09T00:47:27;14.80;99.90
11764;DHT22;5939;56.522;14.950;2022-09-09T00:57:41;14.90;99.90
11764;DHT22;5939;56.522;14.950;2022-09-09T01:11:21;14.90;99.90
11764;DHT22;5939;56.522;14.950;2022-09-09T01:13:56;14.90;99.90
11764;DHT22;5939;56.522;14.950;2022-09-09T01:16:25;14.90;99.90
11764;DHT22;5939;56.522;14.950;2022-09-09T01:18:53;14.90;99.90
11764;DHT22;5939;56.522;14.950;2022-09-09T01:26:45;14.90;99.90
11764;DHT22;5939;56.522;14.950;2022-09-09T01:29:16;14.90;99.90
11764;DHT22;5939;56.522;14.950;2022-09-09T01:32:00;14.90;99.90
11764;DHT22;5939;56.522;14.950;2022-09-09T01:34:30;14.90;99.90
11764;DHT22;5939;56.522;14.950;2022-09-09T01:37:03;14.90;99.90
11764;DHT22;5939;56.522;14.950;2022-09-09T01:39:32;14.90;99.90
11764;DHT22;5939;56.522;14.950;2022-09-09T01:41:59;14.90;99.90
11764;DHT22;5939;56.522;14.950;2022-09-09T01:44:25;14.90;99.90
11764;DHT22;5939;56.522;14.950;2022-09-09T01:46:52;14.90;99.90
11764;DHT22;5939;56.522;14.950;2022-09-09T01:49:18;15.00;99.90
11764;DHT22;5939;56.522;14.950;2022-09-09T01:51:48;14.90;99.90
11764;DHT22;5939;56.522;14.950;2022-09-09T01:54:14;14.90;99.90
11764;DHT22;5939;56.522;14.950;2022-09-09T02:02:16;14.90;99.90
11764;DHT22;5939;56.522;14.950;2022-09-09T02:04:44;14.90;99.90
11764;DHT22;5939;56.522;14.950;2022-09-09T02:07:29;14.90;99.90
11764;DHT22;5939;56.522;14.950;2022-09-09T02:13:14;14.90;99.90
11764;DHT22;5939;56.522;14.950;2022-09-09T02:18:50;14.90;99.90
11764;DHT22;5939;56.522;14.950;2022-09-09T02:21:17;14.90;99.90
11764;DHT22;5939;56.522;14.950;2022-09-09T02:23:43;14.90;99.90
11764;DHT22;5939;56.522;14.950;2022-09-09T02:26:13;14.90;99.90
11764;DHT22;5939;56.522;14.950;2022-09-09T02:28:46;14.90;99.90
11764;DHT22;5939;56.522;14.950;2022-09-09T02:31:13;14.90;99.90
11764;DHT22;5939;56.522;14.950;2022-09-09T02:33:44;14.90;99.90
11764;DHT22;5939;56.522;14.950;2022-09-09T02:36:13;14.90;99.90
11764;DHT22;5939;56.522;14.950;2022-09-09T02:38:45;14.90;99.90
11764;DHT22;5939;56.522;14.950;2022-09-09T02:41:34;15.00;99.90
11764;DHT22;5939;56.522;14.950;2022-09-09T02:44:01;15.00;99.90
11764;DHT22;5939;56.522;14.950;2022-09-09T02:52:33;15.00;99.90
11764;DHT22;5939;56.522;14.950;2022-09-09T02:55:12;15.00;99.90
11764;DHT22;5939;56.522;14.950;2022-09-09T02:57:42;15.00;99.90
11764;DHT22;5939;56.522;14.950;2022-09-09T03:00:11;15.00;99.90
11764;DHT22;5939;56.522;14.950;2022-09-09T03:02:37;15.00;99.90
11764;DHT22;5939;56.522;14.950;2022-09-09T03:05:03;15.00;99.90
11764;DHT22;5939;56.522;14.950;2022-09-09T03:07:28;15.00;99.90
11764;DHT22;5939;56.522;14.950;2022-09-09T03:09:54;15.00;99.90
11764;DHT22;5939;56.522;14.950;2022-09-09T03:12:20;15.00;99.90
11764;DHT22;5939;56.522;14.950;2022-09-09T03:14:46;15.00;99.90
11764;DHT22;5939;56.522;14.950;2022-09-09T03:17:12;15.00;99.90
11764;DHT22;5939;56.522;14.950;2022-09-09T03:19:38;15.00;99.90
11764;DHT22;5939;56.522;14.950;2022-09-09T03:22:05;15.00;99.90
11764;DHT22;5939;56.522;14.950;2022-09-09T03:24:30;15.00;99.90
11764;DHT22;5939;56.522;14.950;2022-09-09T03:26:56;15.00;99.90
11764;DHT22;5939;56.522;14.950;2022-09-09T03:29:22;15.00;99.90
11764;DHT22;5939;56.522;14.950;2022-09-09T03:31:47;15.00;99.90
11764;DHT22;5939;56.522;14.950;2022-09-09T03:34:13;15.00;99.90
11764;DHT22;5939;56.522;14.950;2022-09-09T03:36:42;15.00;99.90
11764;DHT22;5939;56.522;14.950;2022-09-09T03:39:07;15.00;99.90
11764;DHT22;5939;56.522;14.950;2022-09-09T03:41:33;15.00;99.90
11764;DHT22;5939;56.522;14.950;2022-09-09T03:43:59;15.00;99.90
11764;DHT22;5939;56.522;14.950;2022-09-09T03:46:25;15.00;99.90
11764;DHT22;5939;56.522;14.950;2022-09-09T03:48:51;15.00;99.90
11764;DHT22;5939;56.522;14.950;2022-09-09T03:51:18;15.00;99.90
11764;DHT22;5939;56.522;14.950;2022-09-09T03:53:44;15.00;99.90
11764;DHT22;5939;56.522;14.950;2022-09-09T03:56:10;15.00;99.90
11764;DHT22;5939;56.522;14.950;2022-09-09T03:58:37;15.00;99.90
11764;DHT22;5939;56.522;14.950;2022-09-09T04:01:13;15.00;99.90
11764;DHT22;5939;56.522;14.950;2022-09-09T04:03:40;15.00;99.90
11764;DHT22;5939;56.522;14.950;2022-09-09T04:06:07;15.00;99.90
11764;DHT22;5939;56.522;14.950;2022-09-09T04:08:34;15.00;99.90
11764;DHT22;5939;56.522;14.950;2022-09-09T04:11:02;15.00;99.90
11764;DHT22;5939;56.522;14.950;2022-09-09T04:13:30;15.00;99.90
11764;DHT22;5939;56.522;14.950;2022-09-09T04:15:58;15.00;99.90
11764;DHT22;5939;56.522;14.950;2022-09-09T04:18:24;15.00;99.90
11764;DHT22;5939;56.522;14.950;2022-09-09T04:20:52;15.00;99.90
11764;DHT22;5939;56.522;14.950;2022-09-09T04:23:18;15.00;99.90
11764;DHT22;5939;56.522;14.950;2022-09-09T04:25:48;15.00;99.90
11764;DHT22;5939;56.522;14.950;2022-09-09T04:28:18;15.10;99.90
11764;DHT22;5939;56.522;14.950;2022-09-09T04:30:45;15.10;99.90
11764;DHT22;5939;56.522;14.950;2022-09-09T04:33:11;15.10;99.90
11764;DHT22;5939;56.522;14.950;2022-09-09T04:35:37;15.10;99.90
11764;DHT22;5939;56.522;14.950;2022-09-09T04:38:04;15.10;99.90
11764;DHT22;5939;56.522;14.950;2022-09-09T04:40:32;15.10;99.90
11764;DHT22;5939;56.522;14.950;2022-09-09T04:42:59;15.10;99.90
11764;DHT22;5939;56.522;14.950;2022-09-09T04:45:25;15.10;99.90
11764;DHT22;5939;56.522;14.950;2022-09-09T04:47:51;15.10;99.90
11764;DHT22;5939;56.522;14.950;2022-09-09T04:50:18;15.10;99.90
11764;DHT22;5939;56.522;14.950;2022-09-09T04:52:44;15.10;99.90
11764;DHT22;5939;56.522;14.950;2022-09-09T04:55:09;15.10;99.90
11764;DHT22;5939;56.522;14.950;2022-09-09T04:57:35;15.10;99.90
11764;DHT22;5939;56.522;14.950;2022-09-09T05:00:01;15.10;99.90
11764;DHT22;5939;56.522;14.950;2022-09-09T05:02:27;15.10;99.90
11764;DHT22;5939;56.522;14.950;2022-09-09T05:04:53;15.10;99.90
11764;DHT22;5939;56.522;14.950;2022-09-09T05:07:19;15.10;99.90
11764;DHT22;5939;56.522;14.950;2022-09-09T05:09:44;15.10;99.90
11764;DHT22;5939;56.522;14.950;2022-09-09T05:12:11;15.10;99.90
11764;DHT22;5939;56.522;14.950;2022-09-09T05:14:36;15.10;99.90
11764;DHT22;5939;56.522;14.950;2022-09-09T05:17:03;15.10;99.90
11764;DHT22;5939;56.522;14.950;2022-09-09T05:19:29;15.20;99.90
11764;DHT22;5939;56.522;14.950;2022-09-09T05:21:55;15.20;99.90
11764;DHT22;5939;56.522;14.950;2022-09-09T05:24:22;15.20;99.90
11764;DHT22;5939;56.522;14.950;2022-09-09T05:26:48;15.20;99.90
11764;DHT22;5939;56.522;14.950;2022-09-09T05:29:14;15.20;99.90
11764;DHT22;5939;56.522;14.950;2022-09-09T05:31:40;15.20;99.90
11764;DHT22;5939;56.522;14.950;2022-09-09T05:34:06;15.20;99.90
11764;DHT22;5939;56.522;14.950;2022-09-09T05:36:31;15.20;99.90
11764;DHT22;5939;56.522;14.950;2022-09-09T05:38:58;15.20;99.90
11764;DHT22;5939;56.522;14.950;2022-09-09T05:41:23;15.20;99.90
11764;DHT22;5939;56.522;14.950;2022-09-09T05:43:49;15.30;99.90
11764;DHT22;5939;56.522;14.950;2022-09-09T05:46:20;15.30;99.90
11764;DHT22;5939;56.522;14.950;2022-09-09T05:48:47;15.30;99.90
11764;DHT22;5939;56.522;14.950;2022-09-09T05:51:15;15.30;99.90
11764;DHT22;5939;56.522;14.950;2022-09-09T05:53:42;15.30;99.90
11764;DHT22;5939;56.522;14.950;2022-09-09T05:56:09;15.30;99.90
11764;DHT22;5939;56.522;14.950;2022-09-09T05:58:36;15.30;99.90
11764;DHT22;5939;56.522;14.950;2022-09-09T06:01:04;15.30;99.90
11764;DHT22;5939;56.522;14.950;2022-09-09T06:03:30;15.30;99.90
11764;DHT22;5939;56.522;14.950;2022-09-09T06:06:03;15.30;99.90
11764;DHT22;5939;56.522;14.950;2022-09-09T06:08:36;15.40;99.90
11764;DHT22;5939;56.522;14.950;2022-09-09T06:11:07;15.40;99.90
11764;DHT22;5939;56.522;14.950;2022-09-09T06:13:33;15.40;99.90
11764;DHT22;5939;56.522;14.950;2022-09-09T06:16:00;15.40;99.90
11764;DHT22;5939;56.522;14.950;2022-09-09T06:18:26;15.40;99.90
11764;DHT22;5939;56.522;14.950;2022-09-09T06:21:00;15.40;99.90
11764;DHT22;5939;56.522;14.950;2022-09-09T06:23:27;15.40;99.90
11764;DHT22;5939;56.522;14.950;2022-09-09T06:26:13;15.40;99.90
11764;DHT22;5939;56.522;14.950;2022-09-09T06:28:39;15.40;99.90
11764;DHT22;5939;56.522;14.950;2022-09-09T06:31:10;15.50;99.90
11764;DHT22;5939;56.522;14.950;2022-09-09T06:33:38;15.50;99.90
11764;DHT22;5939;56.522;14.950;2022-09-09T06:36:13;15.50;99.90
11764;DHT22;5939;56.522;14.950;2022-09-09T06:38:40;15.50;99.90
11764;DHT22;5939;56.522;14.950;2022-09-09T06:41:06;15.50;99.90
11764;DHT22;5939;56.522;14.950;2022-09-09T06:43:32;15.50;99.90
11764;DHT22;5939;56.522;14.950;2022-09-09T06:46:08;15.50;99.90
11764;DHT22;5939;56.522;14.950;2022-09-09T06:48:35;15.50;99.90
11764;DHT22;5939;56.522;14.950;2022-09-09T06:53:27;15.50;99.90
11764;DHT22;5939;56.522;14.950;2022-09-09T06:55:53;15.50;99.90
11764;DHT22;5939;56.522;14.950;2022-09-09T06:58:20;15.50;99.90
11764;DHT22;5939;56.522;14.950;2022-09-09T07:00:47;15.60;99.90
11764;DHT22;5939;56.522;14.950;2022-09-09T07:03:13;15.60;99.90
11764;DHT22;5939;56.522;14.950;2022-09-09T07:05:39;15.60;99.90
11764;DHT22;5939;56.522;14.950;2022-09-09T07:08:05;15.60;99.90
11764;DHT22;5939;56.522;14.950;2022-09-09T07:10:31;15.60;99.90
11764;DHT22;5939;56.522;14.950;2022-09-09T07:12:57;15.60;99.90
11764;DHT22;5939;56.522;14.950;2022-09-09T07:15:22;15.60;99.90
11764;DHT22;5939;56.522;14.950;2022-09-09T07:17:48;15.60;99.90
11764;DHT22;5939;56.522;14.950;2022-09-09T07:20:14;15.60;99.90
11764;DHT22;5939;56.522;14.950;2022-09-09T07:22:41;15.60;99.90
11764;DHT22;5939;56.522;14.950;2022-09-09T07:25:07;15.60;99.90
11764;DHT22;5939;56.522;14.950;2022-09-09T07:27:33;15.60;99.90
11764;DHT22;5939;56.522;14.950;2022-09-09T07:29:58;15.60;99.90
11764;DHT22;5939;56.522;14.950;2022-09-09T07:32:24;15.70;99.90
11764;DHT22;5939;56.522;14.950;2022-09-09T07:34:51;15.70;99.90
11764;DHT22;5939;56.522;14.950;2022-09-09T07:37:16;15.70;99.90
11764;DHT22;5939;56.522;14.950;2022-09-09T07:39:43;15.70;99.90
11764;DHT22;5939;56.522;14.950;2022-09-09T07:42:09;15.70;99.90
11764;DHT22;5939;56.522;14.950;2022-09-09T07:44:37;15.70;99.90
11764;DHT22;5939;56.522;14.950;2022-09-09T07:47:05;15.70;99.90
11764;DHT22;5939;56.522;14.950;2022-09-09T07:49:32;15.70;99.90
11764;DHT22;5939;56.522;14.950;2022-09-09T07:51:58;15.70;99.90
11764;DHT22;5939;56.522;14.950;2022-09-09T07:54:24;15.70;99.90
11764;DHT22;5939;56.522;14.950;2022-09-09T07:56:50;15.60;99.90
11764;DHT22;5939;56.522;14.950;2022-09-09T07:59:16;15.60;99.90
11764;DHT22;5939;56.522;14.950;2022-09-09T08:01:50;15.60;99.90
11764;DHT22;5939;56.522;14.950;2022-09-09T08:04:20;15.70;99.90
11764;DHT22;5939;56.522;14.950;2022-09-09T08:06:49;15.60;99.90
11764;DHT22;5939;56.522;14.950;2022-09-09T08:09:15;15.60;99.90
11764;DHT22;5939;56.522;14.950;2022-09-09T08:11:42;15.70;99.90
11764;DHT22;5939;56.522;14.950;2022-09-09T08:14:09;15.70;99.90
11764;DHT22;5939;56.522;14.950;2022-09-09T08:16:38;15.60;99.90
11764;DHT22;5939;56.522;14.950;2022-09-09T08:19:04;15.70;99.90
11764;DHT22;5939;56.522;14.950;2022-09-09T08:21:31;15.70;99.90
11764;DHT22;5939;56.522;14.950;2022-09-09T08:24:00;15.60;99.90
11764;DHT22;5939;56.522;14.950;2022-09-09T08:26:31;15.70;99.90
11764;DHT22;5939;56.522;14.950;2022-09-09T08:28:59;15.70;99.90
11764;DHT22;5939;56.522;14.950;2022-09-09T08:31:31;15.70;99.90
11764;DHT22;5939;56.522;14.950;2022-09-09T08:33:59;15.60;99.90
11764;DHT22;5939;56.522;14.950;2022-09-09T08:36:27;15.60;99.90
11764;DHT22;5939;56.522;14.950;2022-09-09T08:38:55;15.70;99.90
11764;DHT22;5939;56.522;14.950;2022-09-09T08:44:38;15.70;99.90
11764;DHT22;5939;56.522;14.950;2022-09-09T08:47:37;15.60;99.90
11764;DHT22;5939;56.522;14.950;2022-09-09T08:53:06;15.60;99.90
11764;DHT22;5939;56.522;14.950;2022-09-09T08:55:52;15.60;99.90
11764;DHT22;5939;56.522;14.950;2022-09-09T08:58:28;15.60;99.90
11764;DHT22;5939;56.522;14.950;2022-09-09T09:09:59;15.60;99.90
11764;DHT22;5939;56.522;14.950;2022-09-09T09:12:30;15.60;99.90
11764;DHT22;5939;56.522;14.950;2022-09-09T09:14:59;15.60;99.90
11764;DHT22;5939;56.522;14.950;2022-09-09T09:17:28;15.60;99.90
11764;DHT22;5939;56.522;14.950;2022-09-09T09:19:57;15.60;99.90
11764;DHT22;5939;56.522;14.950;2022-09-09T09:22:31;15.60;99.90
11764;DHT22;5939;56.522;14.950;2022-09-09T09:25:21;15.60;99.90
11764;DHT22;5939;56.522;14.950;2022-09-09T09:28:02;15.60;99.90
11764;DHT22;5939;56.522;14.950;2022-09-09T09:31:06;15.60;99.90
11764;DHT22;5939;56.522;14.950;2022-09-09T09:36:07;15.60;99.90
11764;DHT22;5939;56.522;14.950;2022-09-09T09:38:34;15.60;99.90
11764;DHT22;5939;56.522;14.950;2022-09-09T09:41:00;15.60;99.90
11764;DHT22;5939;56.522;14.950;2022-09-09T09:43:30;15.60;99.90
11764;DHT22;5939;56.522;14.950;2022-09-09T09:45:57;15.60;99.90
11764;DHT22;5939;56.522;14.950;2022-09-09T09:48:26;15.60;99.90
11764;DHT22;5939;56.522;14.950;2022-09-09T09:50:55;15.60;99.90
11764;DHT22;5939;56.522;14.950;2022-09-09T09:53:31;15.60;99.90
11764;DHT22;5939;56.522;14.950;2022-09-09T09:56:13;15.60;99.90
11764;DHT22;5939;56.522;14.950;2022-09-09T10:03:55;15.50;99.90
11764;DHT22;5939;56.522;14.950;2022-09-09T10:06:32;15.60;99.90
11764;DHT22;5939;56.522;14.950;2022-09-09T10:08:59;15.60;99.90
11764;DHT22;5939;56.522;14.950;2022-09-09T10:19:34;15.60;99.90
11764;DHT22;5939;56.522;14.950;2022-09-09T10:30:20;15.60;99.90
11764;DHT22;5939;56.522;14.950;2022-09-09T10:48:58;15.60;99.90
11764;DHT22;5939;56.522;14.950;2022-09-09T10:57:04;15.60;99.90
11764;DHT22;5939;56.522;14.950;2022-09-09T10:59:40;15.60;99.90
11764;DHT22;5939;56.522;14.950;2022-09-09T11:02:27;15.60;99.90
11764;DHT22;5939;56.522;14.950;2022-09-09T11:05:14;15.60;99.90
11764;DHT22;5939;56.522;14.950;2022-09-09T11:08:26;15.60;99.90
11764;DHT22;5939;56.522;14.950;2022-09-09T11:10:48;15.60;99.90
11764;DHT22;5939;56.522;14.950;2022-09-09T11:16:12;15.60;99.90
11764;DHT22;5939;56.522;14.950;2022-09-09T11:18:41;15.60;99.90
11764;DHT22;5939;56.522;14.950;2022-09-09T11:21:25;15.60;99.90
11764;DHT22;5939;56.522;14.950;2022-09-09T11:23:57;15.60;99.90
11764;DHT22;5939;56.522;14.950;2022-09-09T11:26:55;15.60;99.90
11764;DHT22;5939;56.522;14.950;2022-09-09T11:29:50;15.60;99.90
11764;DHT22;5939;56.522;14.950;2022-09-09T11:35:31;15.60;99.90
11764;DHT22;5939;56.522;14.950;2022-09-09T11:38:10;15.60;99.90
11764;DHT22;5939;56.522;14.950;2022-09-09T11:40:40;15.60;99.90
11764;DHT22;5939;56.522;14.950;2022-09-09T11:45:36;15.60;99.90
11764;DHT22;5939;56.522;14.950;2022-09-09T11:53:18;15.60;99.90
11764;DHT22;5939;56.522;14.950;2022-09-09T11:56:00;15.60;99.90
11764;DHT22;5939;56.522;14.950;2022-09-09T11:58:28;15.60;99.90
11764;DHT22;5939;56.522;14.950;2022-09-09T12:00:58;15.60;99.90
11764;DHT22;5939;56.522;14.950;2022-09-09T12:03:48;15.60;99.90
11764;DHT22;5939;56.522;14.950;2022-09-09T12:06:42;15.60;99.90
11764;DHT22;5939;56.522;14.950;2022-09-09T12:19:42;15.70;99.90
11764;DHT22;5939;56.522;14.950;2022-09-09T12:22:20;15.70;99.90
11764;DHT22;5939;56.522;14.950;2022-09-09T12:25:23;15.60;99.90
11764;DHT22;5939;56.522;14.950;2022-09-09T12:28:05;15.70;99.90
11764;DHT22;5939;56.522;14.950;2022-09-09T12:33:20;15.70;99.90
11764;DHT22;5939;56.522;14.950;2022-09-09T12:35:57;15.70;99.90
11764;DHT22;5939;56.522;14.950;2022-09-09T12:38:38;15.70;99.90
11764;DHT22;5939;56.522;14.950;2022-09-09T12:41:04;15.60;99.90
11764;DHT22;5939;56.522;14.950;2022-09-09T12:43:30;15.70;99.90
11764;DHT22;5939;56.522;14.950;2022-09-09T12:46:02;15.70;99.90
11764;DHT22;5939;56.522;14.950;2022-09-09T12:48:40;15.70;99.90
11764;DHT22;5939;56.522;14.950;2022-09-09T12:51:24;15.70;99.90
11764;DHT22;5939;56.522;14.950;2022-09-09T12:53:52;15.70;99.90
11764;DHT22;5939;56.522;14.950;2022-09-09T12:56:21;15.70;99.90
11764;DHT22;5939;56.522;14.950;2022-09-09T12:58:50;15.70;99.90
11764;DHT22;5939;56.522;14.950;2022-09-09T13:01:30;15.70;99.90
11764;DHT22;5939;56.522;14.950;2022-09-09T13:03:56;15.70;99.90
11764;DHT22;5939;56.522;14.950;2022-09-09T13:08:53;15.70;99.90
11764;DHT22;5939;56.522;14.950;2022-09-09T13:13:54;15.70;99.90
11764;DHT22;5939;56.522;14.950;2022-09-09T13:16:28;15.70;99.90
11764;DHT22;5939;56.522;14.950;2022-09-09T13:19:00;15.70;99.90
11764;DHT22;5939;56.522;14.950;2022-09-09T13:21:37;15.70;99.90
11764;DHT22;5939;56.522;14.950;2022-09-09T13:24:05;15.70;99.90
11764;DHT22;5939;56.522;14.950;2022-09-09T13:26:34;15.70;99.90
11764;DHT22;5939;56.522;14.950;2022-09-09T13:29:17;15.70;99.90
11764;DHT22;5939;56.522;14.950;2022-09-09T13:31:44;15.70;99.90
11764;DHT22;5939;56.522;14.950;2022-09-09T13:34:55;15.70;99.90
11764;DHT22;5939;56.522;14.950;2022-09-09T13:37:41;15.70;99.90
11764;DHT22;5939;56.522;14.950;2022-09-09T13:40:18;15.70;99.90
11764;DHT22;5939;56.522;14.950;2022-09-09T13:42:45;15.70;99.90
11764;DHT22;5939;56.522;14.950;2022-09-09T13:45:22;15.70;99.90
11764;DHT22;5939;56.522;14.950;2022-09-09T13:47:49;15.70;99.90
11764;DHT22;5939;56.522;14.950;2022-09-09T13:50:26;15.70;99.90
11764;DHT22;5939;56.522;14.950;2022-09-09T13:52:54;15.70;99.90
11764;DHT22;5939;56.522;14.950;2022-09-09T13:55:23;15.70;99.90
11764;DHT22;5939;56.522;14.950;2022-09-09T13:57:55;15.70;99.90
11764;DHT22;5939;56.522;14.950;2022-09-09T14:00:21;15.70;99.90
11764;DHT22;5939;56.522;14.950;2022-09-09T14:02:48;15.70;99.90
11764;DHT22;5939;56.522;14.950;2022-09-09T14:05:14;15.70;99.90
11764;DHT22;5939;56.522;14.950;2022-09-09T14:07:42;15.70;99.90
11764;DHT22;5939;56.522;14.950;2022-09-09T14:10:08;15.70;99.90
11764;DHT22;5939;56.522;14.950;2022-09-09T14:12:34;15.70;99.90
11764;DHT22;5939;56.522;14.950;2022-09-09T14:15:00;15.70;99.90
11764;DHT22;5939;56.522;14.950;2022-09-09T14:17:27;15.70;99.90
11764;DHT22;5939;56.522;14.950;2022-09-09T14:19:55;15.70;99.90
11764;DHT22;5939;56.522;14.950;2022-09-09T14:22:22;15.70;99.90
11764;DHT22;5939;56.522;14.950;2022-09-09T14:24:48;15.70;99.90
11764;DHT22;5939;56.522;14.950;2022-09-09T14:27:15;15.70;99.90
11764;DHT22;5939;56.522;14.950;2022-09-09T14:29:41;15.70;99.90
11764;DHT22;5939;56.522;14.950;2022-09-09T14:32:08;15.70;99.90
11764;DHT22;5939;56.522;14.950;2022-09-09T14:34:34;15.70;99.90
11764;DHT22;5939;56.522;14.950;2022-09-09T14:37:00;15.70;99.90
11764;DHT22;5939;56.522;14.950;2022-09-09T14:39:26;15.70;99.90
11764;DHT22;5939;56.522;14.950;2022-09-09T14:41:52;15.70;99.90
11764;DHT22;5939;56.522;14.950;2022-09-09T14:44:17;15.70;99.90
11764;DHT22;5939;56.522;14.950;2022-09-09T14:46:43;15.70;99.90
11764;DHT22;5939;56.522;14.950;2022-09-09T14:49:09;15.70;99.90
11764;DHT22;5939;56.522;14.950;2022-09-09T14:51:36;15.70;99.90
11764;DHT22;5939;56.522;14.950;2022-09-09T14:54:02;15.70;99.90
11764;DHT22;5939;56.522;14.950;2022-09-09T14:56:30;15.70;99.90
11764;DHT22;5939;56.522;14.950;2022-09-09T14:58:58;15.70;99.90
11764;DHT22;5939;56.522;14.950;2022-09-09T15:01:24;15.70;99.90
11764;DHT22;5939;56.522;14.950;2022-09-09T15:03:57;15.70;99.90
11764;DHT22;5939;56.522;14.950;2022-09-09T15:06:28;15.70;99.90
11764;DHT22;5939;56.522;14.950;2022-09-09T15:08:55;15.70;99.90
11764;DHT22;5939;56.522;14.950;2022-09-09T15:11:24;15.70;99.90
11764;DHT22;5939;56.522;14.950;2022-09-09T15:13:51;15.70;99.90
11764;DHT22;5939;56.522;14.950;2022-09-09T15:16:24;15.70;99.90
11764;DHT22;5939;56.522;14.950;2022-09-09T15:18:54;15.70;99.90
11764;DHT22;5939;56.522;14.950;2022-09-09T15:21:23;15.70;99.90
11764;DHT22;5939;56.522;14.950;2022-09-09T15:23:49;15.70;99.90
11764;DHT22;5939;56.522;14.950;2022-09-09T15:26:15;15.70;99.90
11764;DHT22;5939;56.522;14.950;2022-09-09T15:28:42;15.70;99.90
11764;DHT22;5939;56.522;14.950;2022-09-09T15:31:23;15.70;99.90
11764;DHT22;5939;56.522;14.950;2022-09-09T15:33:53;15.70;99.90
11764;DHT22;5939;56.522;14.950;2022-09-09T15:38:47;15.70;99.90
11764;DHT22;5939;56.522;14.950;2022-09-09T15:41:14;15.70;99.90
11764;DHT22;5939;56.522;14.950;2022-09-09T15:43:44;15.60;99.90
11764;DHT22;5939;56.522;14.950;2022-09-09T15:48:46;15.70;99.90
11764;DHT22;5939;56.522;14.950;2022-09-09T15:51:12;15.60;99.90
11764;DHT22;5939;56.522;14.950;2022-09-09T15:53:38;15.60;99.90
11764;DHT22;5939;56.522;14.950;2022-09-09T15:56:07;15.60;99.90
11764;DHT22;5939;56.522;14.950;2022-09-09T15:58:34;15.60;99.90
11764;DHT22;5939;56.522;14.950;2022-09-09T16:01:04;15.70;99.90
11764;DHT22;5939;56.522;14.950;2022-09-09T16:03:34;15.70;99.90
11764;DHT22;5939;56.522;14.950;2022-09-09T16:06:00;15.60;99.90
11764;DHT22;5939;56.522;14.950;2022-09-09T16:08:32;15.70;99.90
11764;DHT22;5939;56.522;14.950;2022-09-09T16:11:05;15.60;99.90
11764;DHT22;5939;56.522;14.950;2022-09-09T16:13:33;15.60;99.90
11764;DHT22;5939;56.522;14.950;2022-09-09T16:15:59;15.60;99.90
11764;DHT22;5939;56.522;14.950;2022-09-09T16:18:24;15.60;99.90
11764;DHT22;5939;56.522;14.950;2022-09-09T16:20:56;15.60;99.90
11764;DHT22;5939;56.522;14.950;2022-09-09T16:23:22;15.60;99.90
11764;DHT22;5939;56.522;14.950;2022-09-09T16:25:55;15.60;99.90
11764;DHT22;5939;56.522;14.950;2022-09-09T16:28:21;15.60;99.90
11764;DHT22;5939;56.522;14.950;2022-09-09T16:30:48;15.60;99.90
11764;DHT22;5939;56.522;14.950;2022-09-09T16:33:13;15.60;99.90
11764;DHT22;5939;56.522;14.950;2022-09-09T16:35:42;15.60;99.90
11764;DHT22;5939;56.522;14.950;2022-09-09T16:38:08;15.60;99.90
11764;DHT22;5939;56.522;14.950;2022-09-09T16:40:35;15.60;99.90
11764;DHT22;5939;56.522;14.950;2022-09-09T16:43:02;15.60;99.90
11764;DHT22;5939;56.522;14.950;2022-09-09T16:45:28;15.60;99.90
11764;DHT22;5939;56.522;14.950;2022-09-09T16:47:54;15.60;99.90
11764;DHT22;5939;56.522;14.950;2022-09-09T16:50:20;15.60;99.90
11764;DHT22;5939;56.522;14.950;2022-09-09T16:52:45;15.60;99.90
11764;DHT22;5939;56.522;14.950;2022-09-09T16:55:11;15.60;99.90
11764;DHT22;5939;56.522;14.950;2022-09-09T16:57:37;15.60;99.90
11764;DHT22;5939;56.522;14.950;2022-09-09T17:00:03;15.60;99.90
11764;DHT22;5939;56.522;14.950;2022-09-09T17:02:31;15.60;99.90
11764;DHT22;5939;56.522;14.950;2022-09-09T17:04:56;15.60;99.90
11764;DHT22;5939;56.522;14.950;2022-09-09T17:07:22;15.60;99.90
11764;DHT22;5939;56.522;14.950;2022-09-09T17:09:48;15.60;99.90
11764;DHT22;5939;56.522;14.950;2022-09-09T17:12:15;15.60;99.90
11764;DHT22;5939;56.522;14.950;2022-09-09T17:14:41;15.60;99.90
11764;DHT22;5939;56.522;14.950;2022-09-09T17:17:07;15.60;99.90
11764;DHT22;5939;56.522;14.950;2022-09-09T17:19:33;15.60;99.90
11764;DHT22;5939;56.522;14.950;2022-09-09T17:21:59;15.50;99.90
11764;DHT22;5939;56.522;14.950;2022-09-09T17:24:26;15.50;99.90
11764;DHT22;5939;56.522;14.950;2022-09-09T17:26:54;15.50;99.90
11764;DHT22;5939;56.522;14.950;2022-09-09T17:29:20;15.50;99.90
11764;DHT22;5939;56.522;14.950;2022-09-09T17:31:46;15.50;99.90
11764;DHT22;5939;56.522;14.950;2022-09-09T17:34:12;15.50;99.90
11764;DHT22;5939;56.522;14.950;2022-09-09T17:36:38;15.50;99.90
11764;DHT22;5939;56.522;14.950;2022-09-09T17:39:04;15.50;99.90
11764;DHT22;5939;56.522;14.950;2022-09-09T17:41:33;15.50;99.90
11764;DHT22;5939;56.522;14.950;2022-09-09T17:43:59;15.50;99.90
11764;DHT22;5939;56.522;14.950;2022-09-09T17:46:30;15.50;99.90
11764;DHT22;5939;56.522;14.950;2022-09-09T17:49:02;15.50;99.90
11764;DHT22;5939;56.522;14.950;2022-09-09T17:51:30;15.50;99.90
11764;DHT22;5939;56.522;14.950;2022-09-09T17:53:59;15.50;99.90
11764;DHT22;5939;56.522;14.950;2022-09-09T17:56:28;15.50;99.90
11764;DHT22;5939;56.522;14.950;2022-09-09T17:58:56;15.50;99.90
11764;DHT22;5939;56.522;14.950;2022-09-09T18:01:24;15.50;99.90
11764;DHT22;5939;56.522;14.950;2022-09-09T18:03:52;15.50;99.90
11764;DHT22;5939;56.522;14.950;2022-09-09T18:06:24;15.50;99.90
11764;DHT22;5939;56.522;14.950;2022-09-09T18:08:54;15.50;99.90
11764;DHT22;5939;56.522;14.950;2022-09-09T18:11:22;15.50;99.90
11764;DHT22;5939;56.522;14.950;2022-09-09T18:13:54;15.50;99.90
11764;DHT22;5939;56.522;14.950;2022-09-09T18:16:20;15.50;99.90
11764;DHT22;5939;56.522;14.950;2022-09-09T18:18:47;15.40;99.90
11764;DHT22;5939;56.522;14.950;2022-09-09T18:21:14;15.50;99.90
11764;DHT22;5939;56.522;14.950;2022-09-09T18:23:42;15.50;99.90